createdAt,value
2022-12-22T00:01:03.931Z,29.43
2022-12-22T00:03:56.336Z,37.37
2022-12-22T00:06:48.059Z,34.77
2022-12-22T00:09:39.884Z,24.83
2022-12-22T00:12:33.620Z,30.20
2022-12-22T00:15:33.786Z,26.83
2022-12-22T00:18:33.366Z,33.90
2022-12-22T00:21:25.525Z,25.67
2022-12-22T00:24:17.244Z,28.80
2022-12-22T00:27:09.320Z,29.03
2022-12-22T00:30:04.363Z,29.47
2022-12-22T00:32:57.928Z,33.77
2022-12-22T00:35:50.153Z,23.67
2022-12-22T00:38:42.156Z,26.27
2022-12-22T00:41:34.201Z,29.43
2022-12-22T00:44:26.073Z,24.93
2022-12-22T00:47:17.919Z,27.53
2022-12-22T00:50:12.516Z,27.17
2022-12-22T00:53:05.027Z,29.37
2022-12-22T00:55:56.685Z,22.33
2022-12-22T00:58:48.454Z,23.03
2022-12-22T01:01:40.367Z,24.83
2022-12-22T01:04:32.304Z,28.90
2022-12-22T01:07:29.021Z,28.50
2022-12-22T01:10:20.855Z,26.47
2022-12-22T01:13:12.955Z,20.00
2022-12-22T01:16:04.718Z,25.93
2022-12-22T01:18:56.426Z,31.63
2022-12-22T01:21:48.139Z,26.83
2022-12-22T01:24:41.301Z,34.27
2022-12-22T01:27:33.152Z,34.23
2022-12-22T01:30:27.054Z,24.63
2022-12-22T01:33:18.723Z,33.53
2022-12-22T01:36:11.023Z,29.17
2022-12-22T01:39:02.684Z,34.57
2022-12-22T01:41:56.174Z,29.27
2022-12-22T01:44:47.903Z,32.40
2022-12-22T01:47:51.812Z,42.43
2022-12-22T01:50:50.868Z,35.13
2022-12-22T01:53:45.948Z,43.17
2022-12-22T01:56:38.308Z,41.27
2022-12-22T01:59:31.651Z,30.83
2022-12-22T02:02:25.260Z,31.57
2022-12-22T02:05:20.139Z,33.93
2022-12-22T02:08:20.868Z,22.83
2022-12-22T02:11:29.380Z,23.37
2022-12-22T02:14:32.913Z,20.67
2022-12-22T02:17:35.912Z,26.13
2022-12-22T02:20:47.544Z,31.17
2022-12-22T02:23:57.249Z,27.93
2022-12-22T02:26:53.174Z,28.53
2022-12-22T02:29:48.279Z,32.20
2022-12-22T02:32:42.120Z,26.50
2022-12-22T02:35:35.944Z,25.90
2022-12-22T02:38:36.555Z,31.63
2022-12-22T02:41:39.297Z,30.83
2022-12-22T02:44:43.003Z,31.20
2022-12-22T02:47:42.093Z,25.87
2022-12-22T02:50:40.200Z,25.57
2022-12-22T02:53:34.478Z,24.33
2022-12-22T02:56:28.909Z,29.53
2022-12-22T02:59:20.797Z,30.53
2022-12-22T03:02:14.791Z,27.97
2022-12-22T03:05:06.805Z,23.37
2022-12-22T03:08:01.840Z,25.80
2022-12-22T03:10:58.554Z,30.93
2022-12-22T03:13:50.422Z,25.53
2022-12-22T03:16:42.548Z,23.47
2022-12-22T03:19:35.762Z,26.70
2022-12-22T03:22:27.812Z,23.97
2022-12-22T03:25:19.536Z,22.23
2022-12-22T03:27:53.969Z,21.77
2022-12-22T03:30:28.105Z,28.43
2022-12-22T03:33:02.549Z,24.07
2022-12-22T03:35:38.080Z,28.80
2022-12-22T03:38:12.671Z,21.07
2022-12-22T03:40:46.940Z,20.97
2022-12-22T03:43:39.319Z,17.00
2022-12-22T03:46:40.420Z,24.40
2022-12-22T03:49:15.066Z,24.63
2022-12-22T03:51:52.534Z,18.43
2022-12-22T03:54:27.595Z,20.43
2022-12-22T03:57:01.766Z,24.50
2022-12-22T03:59:36.615Z,14.63
2022-12-22T04:02:10.908Z,25.20
2022-12-22T04:04:45.380Z,19.90
2022-12-22T04:07:20.872Z,23.90
2022-12-22T04:10:13.194Z,22.47
2022-12-22T04:12:56.692Z,27.10
2022-12-22T04:15:33.282Z,16.13
2022-12-22T04:18:07.543Z,23.17
2022-12-22T04:20:42.693Z,26.43
2022-12-22T04:23:18.312Z,21.17
2022-12-22T04:25:52.782Z,22.60
2022-12-22T04:28:27.041Z,13.83
2022-12-22T04:31:01.609Z,23.20
2022-12-22T04:33:35.651Z,17.30
2022-12-22T04:36:11.221Z,16.93
2022-12-22T04:38:47.190Z,21.50
2022-12-22T04:41:21.655Z,22.37
2022-12-22T04:43:55.748Z,31.03
2022-12-22T04:46:30.298Z,24.97
2022-12-22T04:49:04.719Z,20.80
2022-12-22T04:51:39.107Z,17.07
2022-12-22T04:54:14.709Z,23.27
2022-12-22T04:56:49.212Z,25.20
2022-12-22T04:59:23.391Z,22.33
2022-12-22T05:01:58.713Z,24.50
2022-12-22T05:04:33.472Z,21.70
2022-12-22T05:07:08.666Z,18.53
2022-12-22T05:09:46.297Z,21.03
2022-12-22T05:12:38.895Z,25.90
2022-12-22T05:15:13.910Z,20.87
2022-12-22T05:17:48.446Z,20.63
2022-12-22T05:20:25.611Z,28.10
2022-12-22T05:23:00.365Z,24.57
2022-12-22T05:25:35.950Z,27.33
2022-12-22T05:28:10.595Z,23.37
2022-12-22T05:30:44.817Z,19.30
2022-12-22T05:33:19.279Z,21.10
2022-12-22T05:35:54.003Z,28.13
2022-12-22T05:38:28.699Z,25.57
2022-12-22T05:41:05.021Z,19.93
2022-12-22T05:43:39.823Z,32.13
2022-12-22T05:46:14.094Z,21.97
2022-12-22T05:49:59.850Z,26.05
2022-12-22T05:52:34.798Z,17.67
2022-12-22T05:55:10.488Z,32.57
2022-12-22T05:57:45.501Z,24.90
2022-12-22T06:00:20.671Z,22.97
2022-12-22T06:02:55.363Z,18.27
2022-12-22T06:05:31.040Z,22.23
2022-12-22T06:08:06.382Z,28.77
2022-12-22T06:10:40.615Z,22.50
2022-12-22T06:13:15.186Z,22.47
2022-12-22T06:15:49.771Z,23.53
2022-12-22T06:18:24.242Z,17.97
2022-12-22T06:20:59.693Z,24.20
2022-12-22T06:23:34.295Z,27.93
2022-12-22T06:26:08.439Z,14.50
2022-12-22T06:28:43.220Z,28.27
2022-12-22T06:31:17.409Z,32.70
2022-12-22T06:33:51.823Z,23.17
2022-12-22T06:36:27.353Z,22.93
2022-12-22T06:39:01.839Z,22.67
2022-12-22T06:41:53.281Z,24.50
2022-12-22T06:44:27.972Z,23.13
2022-12-22T06:47:02.183Z,23.63
2022-12-22T06:49:36.765Z,23.93
2022-12-22T06:52:12.422Z,24.70
2022-12-22T06:54:46.820Z,20.10
2022-12-22T06:57:20.933Z,24.13
2022-12-22T06:59:57.939Z,22.30
2022-12-22T07:02:32.597Z,31.70
2022-12-22T07:05:07.988Z,34.13
2022-12-22T07:07:44.045Z,25.10
2022-12-22T07:10:19.342Z,17.73
2022-12-22T07:12:54.439Z,51.27
2022-12-22T07:15:28.939Z,114.50
2022-12-22T07:18:03.072Z,95.53
2022-12-22T07:20:37.703Z,39.57
2022-12-22T07:23:13.691Z,47.50
2022-12-22T07:25:48.279Z,44.53
2022-12-22T07:28:22.599Z,52.73
2022-12-22T07:30:57.224Z,37.83
2022-12-22T07:33:31.689Z,33.43
2022-12-22T07:36:08.544Z,35.60
2022-12-22T07:38:46.390Z,35.33
2022-12-22T07:41:39.154Z,76.33
2022-12-22T07:44:13.740Z,90.93
2022-12-22T07:46:48.319Z,78.13
2022-12-22T07:49:39.916Z,63.50
2022-12-22T07:52:14.605Z,49.87
2022-12-22T07:54:50.120Z,45.33
2022-12-22T07:57:26.348Z,39.60
2022-12-22T08:00:00.598Z,48.13
2022-12-22T08:02:38.797Z,34.33
2022-12-22T08:05:13.906Z,30.70
2022-12-22T08:07:50.279Z,30.63
2022-12-22T08:10:27.942Z,30.17
2022-12-22T08:13:02.076Z,43.03
2022-12-22T08:15:38.153Z,36.47
2022-12-22T08:18:13.639Z,33.03
2022-12-22T08:20:51.619Z,30.67
2022-12-22T08:23:25.754Z,28.70
2022-12-22T08:26:06.997Z,31.27
2022-12-22T08:28:45.436Z,25.70
2022-12-22T08:31:20.747Z,50.03
2022-12-22T08:33:55.622Z,29.27
2022-12-22T08:36:32.124Z,29.80
2022-12-22T08:39:06.302Z,44.40
2022-12-22T08:41:51.441Z,45.83
2022-12-22T08:44:27.358Z,45.27
2022-12-22T08:47:01.873Z,40.23
2022-12-22T08:49:36.192Z,33.37
2022-12-22T08:52:16.023Z,38.13
2022-12-22T08:54:52.426Z,37.53
2022-12-22T08:57:28.235Z,40.03
2022-12-22T09:00:03.126Z,22.20
2022-12-22T09:02:40.683Z,33.33
2022-12-22T09:05:15.135Z,28.53
2022-12-22T09:07:49.663Z,29.97
2022-12-22T09:10:23.869Z,29.73
2022-12-22T09:13:00.158Z,38.33
2022-12-22T09:15:34.360Z,38.03
2022-12-22T09:18:09.114Z,31.50
2022-12-22T09:20:43.562Z,33.03
2022-12-22T09:23:18.118Z,32.67
2022-12-22T09:25:53.008Z,47.50
2022-12-22T09:28:28.814Z,35.20
2022-12-22T09:31:03.079Z,34.20
2022-12-22T09:33:37.775Z,57.27
2022-12-22T09:36:13.886Z,49.83
2022-12-22T09:38:49.930Z,38.77
2022-12-22T09:41:31.728Z,35.83
2022-12-22T09:44:14.979Z,29.20
2022-12-22T09:46:49.418Z,27.47
2022-12-22T09:49:25.153Z,32.50
2022-12-22T09:52:02.325Z,28.33
2022-12-22T09:54:36.795Z,23.67
2022-12-22T09:57:14.117Z,41.77
2022-12-22T09:59:53.614Z,27.57
2022-12-22T10:02:35.136Z,27.90
2022-12-22T10:05:26.841Z,31.43
2022-12-22T10:08:03.808Z,27.27
2022-12-22T10:10:38.366Z,30.07
2022-12-22T10:13:19.369Z,28.83
2022-12-22T10:15:55.995Z,22.10
2022-12-22T10:18:31.445Z,30.10
2022-12-22T10:21:12.508Z,36.13
2022-12-22T10:23:48.931Z,30.10
2022-12-22T10:26:28.612Z,29.53
2022-12-22T10:29:08.865Z,90.68
2022-12-22T10:32:03.203Z,57.23
2022-12-22T10:34:37.357Z,43.87
2022-12-22T10:37:11.898Z,40.83
2022-12-22T10:39:48.375Z,32.73
2022-12-22T10:42:22.963Z,28.83
2022-12-22T10:44:59.145Z,39.73
2022-12-22T10:47:36.138Z,31.10
2022-12-22T10:50:14.447Z,27.80
2022-12-22T10:52:54.332Z,33.80
2022-12-22T10:55:30.480Z,36.23
2022-12-22T10:58:17.206Z,34.23
2022-12-22T11:01:03.922Z,36.83
2022-12-22T11:03:39.986Z,39.83
2022-12-22T11:06:14.388Z,35.30
2022-12-22T11:08:51.497Z,31.70
2022-12-22T11:11:37.888Z,37.93
2022-12-22T11:14:21.463Z,27.73
2022-12-22T11:17:03.381Z,27.73
2022-12-22T11:19:56.663Z,38.13
2022-12-22T11:22:40.481Z,25.47
2022-12-22T11:25:31.034Z,29.33
2022-12-22T11:28:17.037Z,28.38
2022-12-22T11:31:04.446Z,29.87
2022-12-22T11:33:51.574Z,32.73
2022-12-22T11:36:39.783Z,32.97
2022-12-22T11:39:16.831Z,47.20
2022-12-22T11:42:06.421Z,33.47
2022-12-22T11:44:46.723Z,30.47
2022-12-22T11:47:35.647Z,35.15
2022-12-22T11:51:02.725Z,34.70
2022-12-22T11:53:48.353Z,33.37
2022-12-22T11:56:25.253Z,25.43
2022-12-22T11:59:16.844Z,36.87
2022-12-22T12:02:20.311Z,37.07
2022-12-22T12:05:32.520Z,34.57
2022-12-22T12:08:15.086Z,32.80
2022-12-22T12:10:55.258Z,33.53
2022-12-22T12:13:40.202Z,38.70
2022-12-22T12:16:21.124Z,41.17
2022-12-22T12:19:13.542Z,64.25
2022-12-22T12:21:53.280Z,91.13
2022-12-22T12:24:42.723Z,166.27
2022-12-22T12:27:37.249Z,38.00
2022-12-22T12:33:16.801Z,49.00
2022-12-22T12:36:03.350Z,34.55
2022-12-22T12:41:52.235Z,54.70
2022-12-22T12:44:32.944Z,42.47
2022-12-22T12:47:23.619Z,55.72
2022-12-22T12:50:11.472Z,51.73
2022-12-22T12:53:07.752Z,41.97
2022-12-22T12:56:06.518Z,34.30
2022-12-22T12:58:58.225Z,34.57
2022-12-22T13:02:00.046Z,34.70
2022-12-22T13:05:03.184Z,37.47
2022-12-22T13:08:15.693Z,35.53
2022-12-22T13:11:52.599Z,32.50
2022-12-22T13:14:58.120Z,58.77
2022-12-22T13:17:43.656Z,37.87
2022-12-22T13:20:26.666Z,46.55
2022-12-22T13:23:03.700Z,42.37
2022-12-22T13:25:43.225Z,41.90
2022-12-22T13:28:19.943Z,44.63
2022-12-22T13:31:00.707Z,43.50
2022-12-22T13:33:41.024Z,46.40
2022-12-22T13:39:02.180Z,38.47
2022-12-22T13:41:36.760Z,41.43
2022-12-22T13:44:23.321Z,87.70
2022-12-22T13:47:03.513Z,108.20
2022-12-22T13:50:07.901Z,119.27
2022-12-22T13:52:38.094Z,67.80
2022-12-22T13:55:15.898Z,45.40
2022-12-22T13:57:56.308Z,38.70
2022-12-22T14:00:32.821Z,34.03
2022-12-22T14:03:41.782Z,36.03
2022-12-22T14:06:26.844Z,42.27
2022-12-22T14:09:16.215Z,39.13
2022-12-22T14:11:53.779Z,22.77
2022-12-22T14:14:31.266Z,23.03
2022-12-22T14:17:06.535Z,53.47
2022-12-22T14:19:42.066Z,52.83
2022-12-22T14:22:22.742Z,46.90
2022-12-22T14:25:00.248Z,48.47
2022-12-22T14:27:39.538Z,55.37
2022-12-22T14:30:18.992Z,52.50
2022-12-22T14:32:55.912Z,55.30
2022-12-22T14:35:31.790Z,54.93
2022-12-22T14:38:25.723Z,53.00
2022-12-22T14:41:00.402Z,61.63
2022-12-22T14:43:34.601Z,59.40
2022-12-22T14:46:10.124Z,59.53
2022-12-22T14:48:48.282Z,66.90
2022-12-22T14:51:23.377Z,70.13
2022-12-22T14:54:02.928Z,70.23
2022-12-22T14:56:49.315Z,73.00
2022-12-22T14:59:26.305Z,73.10
2022-12-22T15:02:03.164Z,66.17
2022-12-22T15:04:37.452Z,67.83
2022-12-22T15:07:54.185Z,57.93
2022-12-22T15:10:16.679Z,67.53
2022-12-22T15:12:55.506Z,64.63
2022-12-22T15:15:31.616Z,59.43
2022-12-22T15:18:06.421Z,50.53
2022-12-22T15:20:41.336Z,57.57
2022-12-22T15:23:17.450Z,64.97
2022-12-22T15:25:53.259Z,66.20
2022-12-22T15:28:27.841Z,64.73
2022-12-22T15:31:03.399Z,64.13
2022-12-22T15:33:37.866Z,68.00
2022-12-22T15:36:13.710Z,72.67
2022-12-22T15:38:48.231Z,67.37
2022-12-22T15:41:24.288Z,71.80
2022-12-22T15:43:59.517Z,70.50
2022-12-22T15:46:34.089Z,68.93
2022-12-22T15:49:16.685Z,69.97
2022-12-22T15:51:55.352Z,76.27
2022-12-22T15:54:33.311Z,68.63
2022-12-22T15:57:12.304Z,53.13
2022-12-22T15:59:48.196Z,45.10
2022-12-22T16:02:22.506Z,57.03
2022-12-22T16:04:57.695Z,61.90
2022-12-22T16:07:32.465Z,57.80
2022-12-22T16:10:19.395Z,63.27
2022-12-22T16:13:00.458Z,64.50
2022-12-22T16:15:36.262Z,64.60
2022-12-22T16:18:13.835Z,57.67
2022-12-22T16:20:50.193Z,62.20
2022-12-22T16:23:27.200Z,56.77
2022-12-22T16:26:02.581Z,62.67
2022-12-22T16:28:38.397Z,68.23
2022-12-22T16:31:19.511Z,65.07
2022-12-22T16:33:54.336Z,55.23
2022-12-22T16:36:28.931Z,100.97
2022-12-22T16:39:03.217Z,90.67
2022-12-22T16:41:38.202Z,61.40
2022-12-22T16:44:22.009Z,56.67
2022-12-22T16:46:58.357Z,65.80
2022-12-22T16:49:32.738Z,39.87
2022-12-22T16:52:07.592Z,112.73
2022-12-22T16:54:41.787Z,65.37
2022-12-22T16:57:16.643Z,61.20
2022-12-22T16:59:52.525Z,72.37
2022-12-22T17:02:30.243Z,53.47
2022-12-22T17:05:06.397Z,52.33
2022-12-22T17:07:40.919Z,58.23
2022-12-22T17:10:17.031Z,58.23
2022-12-22T17:12:55.166Z,55.87
2022-12-22T17:15:30.822Z,71.03
2022-12-22T17:18:07.802Z,69.27
2022-12-22T17:20:42.145Z,122.93
2022-12-22T17:23:32.866Z,85.83
2022-12-22T17:26:09.540Z,60.47
2022-12-22T17:28:45.359Z,72.97
2022-12-22T17:31:23.739Z,76.93
2022-12-22T17:33:58.824Z,77.23
2022-12-22T17:36:37.257Z,63.27
2022-12-22T17:39:14.417Z,65.80
2022-12-22T17:41:56.419Z,63.70
2022-12-22T17:44:31.705Z,60.77
2022-12-22T17:47:07.407Z,47.47
2022-12-22T17:49:42.346Z,46.90
2022-12-22T17:52:19.093Z,55.47
2022-12-22T17:54:54.397Z,59.97
2022-12-22T17:57:31.374Z,41.17
2022-12-22T18:00:18.389Z,47.93
2022-12-22T18:02:55.189Z,56.40
2022-12-22T18:05:35.770Z,55.53
2022-12-22T18:08:14.294Z,62.08
2022-12-22T18:10:49.838Z,55.60
2022-12-22T18:13:26.394Z,54.87
2022-12-22T18:16:00.639Z,52.27
2022-12-22T18:18:36.718Z,46.37
2022-12-22T18:21:16.307Z,58.23
2022-12-22T18:23:52.110Z,81.55
2022-12-22T18:26:28.467Z,60.53
2022-12-22T18:29:04.270Z,55.97
2022-12-22T18:31:38.646Z,57.97
2022-12-22T18:34:14.659Z,54.80
2022-12-22T18:36:49.555Z,74.50
2022-12-22T18:39:24.141Z,83.90
2022-12-22T18:41:58.938Z,66.90
2022-12-22T18:44:33.552Z,58.33
2022-12-22T18:47:11.647Z,61.00
2022-12-22T18:49:48.534Z,66.20
2022-12-22T18:52:24.822Z,65.43
2022-12-22T18:54:59.356Z,70.33
2022-12-22T18:57:33.576Z,83.53
2022-12-22T19:00:14.073Z,66.73
2022-12-22T19:02:50.969Z,83.37
2022-12-22T19:05:29.558Z,97.27
2022-12-22T19:08:04.241Z,67.67
2022-12-22T19:10:42.202Z,66.00
2022-12-22T19:13:28.345Z,68.37
2022-12-22T19:16:03.378Z,57.37
2022-12-22T19:18:38.071Z,54.03
2022-12-22T19:21:15.727Z,51.73
2022-12-22T19:23:50.076Z,48.33
2022-12-22T19:26:27.294Z,50.17
2022-12-22T19:29:02.781Z,58.13
2022-12-22T19:31:39.197Z,55.20
2022-12-22T19:34:20.124Z,60.47
2022-12-22T19:36:55.997Z,47.10
2022-12-22T19:39:30.427Z,51.50
2022-12-22T19:42:05.228Z,44.33
2022-12-22T19:44:39.510Z,39.97
2022-12-22T19:47:18.836Z,45.67
2022-12-22T19:49:55.110Z,60.27
2022-12-22T19:52:31.356Z,57.67
2022-12-22T19:55:06.434Z,46.67
2022-12-22T19:57:42.804Z,46.30
2022-12-22T20:00:21.846Z,51.03
2022-12-22T20:02:58.379Z,46.17
2022-12-22T20:05:34.119Z,38.43
2022-12-22T20:08:10.582Z,49.67
2022-12-22T20:10:46.583Z,46.97
2022-12-22T20:13:22.280Z,49.13
2022-12-22T20:15:56.516Z,51.30
2022-12-22T20:18:31.089Z,59.20
2022-12-22T20:21:11.618Z,49.63
2022-12-22T20:23:48.326Z,41.13
2022-12-22T20:26:25.808Z,40.97
2022-12-22T20:29:00.576Z,47.60
2022-12-22T20:31:34.804Z,47.00
2022-12-22T20:34:09.548Z,53.63
2022-12-22T20:36:44.354Z,37.63
2022-12-22T20:39:20.709Z,37.23
2022-12-22T20:41:55.000Z,38.27
2022-12-22T20:44:29.582Z,35.63
2022-12-22T20:47:04.534Z,44.73
2022-12-22T20:49:39.330Z,37.77
2022-12-22T20:52:17.789Z,40.33
2022-12-22T20:54:53.777Z,56.27
2022-12-22T20:57:28.700Z,42.13
2022-12-22T21:00:09.672Z,31.50
2022-12-22T21:02:44.058Z,29.20
2022-12-22T21:05:19.366Z,44.93
2022-12-22T21:07:53.565Z,57.53
2022-12-22T21:10:29.638Z,40.90
2022-12-22T21:13:03.766Z,35.37
2022-12-22T21:15:39.847Z,38.30
2022-12-22T21:18:17.061Z,37.90
2022-12-22T21:20:52.528Z,40.70
2022-12-22T21:23:26.853Z,32.33
2022-12-22T21:26:03.208Z,36.10
2022-12-22T21:28:39.264Z,34.50
2022-12-22T21:31:13.992Z,43.70
2022-12-22T21:33:50.340Z,43.97
2022-12-22T21:36:28.100Z,35.63
2022-12-22T21:39:04.483Z,42.60
2022-12-22T21:41:57.845Z,28.00
2022-12-22T21:44:34.451Z,36.00
2022-12-22T21:47:13.194Z,38.00
2022-12-22T21:49:48.160Z,37.17
2022-12-22T21:52:22.642Z,38.50
2022-12-22T21:54:56.818Z,41.47
2022-12-22T21:57:32.708Z,41.03
2022-12-22T22:00:08.408Z,36.07
2022-12-22T22:02:43.998Z,35.67
2022-12-22T22:05:27.442Z,30.17
2022-12-22T22:08:03.269Z,38.90
2022-12-22T22:10:39.371Z,37.27
2022-12-22T22:13:16.983Z,45.70
2022-12-22T22:15:51.202Z,40.03
2022-12-22T22:18:25.772Z,40.87
2022-12-22T22:20:59.960Z,158.47
2022-12-22T22:23:34.505Z,57.23
2022-12-22T22:26:09.811Z,55.27
2022-12-22T22:28:45.939Z,39.43
2022-12-22T22:31:20.289Z,42.07
2022-12-22T22:33:54.954Z,40.97
2022-12-22T22:36:29.247Z,40.50
2022-12-22T22:39:04.183Z,36.03
2022-12-22T22:41:43.319Z,37.57
2022-12-22T22:44:19.782Z,34.33
2022-12-22T22:46:53.987Z,41.20
2022-12-22T22:49:29.049Z,35.37
2022-12-22T22:52:03.368Z,36.80
2022-12-22T22:54:38.276Z,30.50
2022-12-22T22:57:12.416Z,34.13
2022-12-22T22:59:51.751Z,49.80
2022-12-22T23:02:26.272Z,49.93
2022-12-22T23:05:00.775Z,55.40
2022-12-22T23:07:35.249Z,42.73
2022-12-22T23:10:11.277Z,46.53
2022-12-22T23:12:45.532Z,44.07
2022-12-22T23:15:21.712Z,37.20
2022-12-22T23:17:55.933Z,39.17
2022-12-22T23:20:30.378Z,45.53
2022-12-22T23:23:04.549Z,39.10
2022-12-22T23:25:43.139Z,41.00
2022-12-22T23:28:18.025Z,41.40
2022-12-22T23:30:54.932Z,40.97
2022-12-22T23:33:31.582Z,47.30
2022-12-22T23:36:06.849Z,44.43
2022-12-22T23:38:41.000Z,41.90
2022-12-22T23:41:15.849Z,46.60
2022-12-22T23:43:50.480Z,45.57
2022-12-22T23:46:26.449Z,39.07
2022-12-22T23:49:00.819Z,39.67
2022-12-22T23:51:35.551Z,35.30
2022-12-22T23:54:10.094Z,35.87
2022-12-22T23:56:44.619Z,35.00
2022-12-22T23:59:19.170Z,39.03
